Hauptseite
METAR-TAF:

METAR-TAF

Flughäfen :

Militärflugplatz Cervia

Cervia, Italien

Breite: 44-13N, Länge: 012-18E, Höhe: 6 m

Beobachtung

Neuester Wetterbericht von vor 36 Minuten, um 20:55 UTC
Wind 8 kt aus West
Temperatur 3°C
Luftfeuchtigkeit 93%
Luftdruck 1014 hPa
Sichtweite 10 km oder mehr
keine Wolken unter 1500 m und keine Kumulonimbus oder Gewitterwolken

METAR: LIPC 182055Z 26008KT CAVOK 03/02 Q1014 RMK SKC VIS MIN 9999 WIND THR11 27006KT WIND THR29 27009KT BLU

Zeit: 22:31 (21:31 UTC)

Prognose

Neuester Wetterbericht von vor 1 Stunde und 31 Minuten, um 20:00 UTC
Gültige Prognose vom 18 um 21 UTC bis 19 um 06 UTC
Wind 10 kt aus West/Nordwest
Sichtweite 10 km oder mehr
Aufgelockert bewölkt in der Höhe von 5000 ft

TAF: LIPC 182000Z 1821/1906 29010KT 9999 SCT050

Wetterbeobachtungen und Prognosen von mehr als 4000 Flughäfen (METAR und TAF Bericht).

Die verfügbaren Stationen werden durch gelbe und rote Markierungen auf der Karte dargestellt.

Führen Sie die Maus auf sie, um den Namen der Station zu sehen.

Darauf klicken, um die Beobachtung von Wetterbeobachtungen und Prognosen zu sehen.

Um die Karte zu ändern : klicken Sie auf den grünen Tasten mit einem schwarzen Kreuz Zum Vergrößern, auf den grünen Button mit einem Gedankenstrich zu verkleinern, oder auf die grünen Pfeile für benachbarte Karten.


METAR-TAF: